Time;durP1;ratioP1;P1;durP2;ratioP2;P2;SDS_P1;SDS_P2;PMS_P1;PMS_P2;Temp;Humidity;BMP_temperature;BMP_pressure;BME280_temperature;BME280_humidity;BME280_pressure;Samples;Min_cycle;Max_cycle;Signal;HPM_P1;HPM_P2
2022/05/18 00:00:23;;;;;;;12.02;3.42;;;15.60;91.90;;;;;;5008291;28;20030;-72
2022/05/18 00:02:49;;;;;;;10.52;3.38;;;15.50;91.60;;;;;;5000442;28;20073;-73
2022/05/18 00:05:15;;;;;;;11.38;3.33;;;15.50;91.60;;;;;;4988787;28;20038;-73
2022/05/18 00:07:41;;;;;;;10.57;3.40;;;15.50;91.60;;;;;;5000606;28;20033;-73
2022/05/18 00:10:07;;;;;;;13.07;3.22;;;15.40;91.60;;;;;;5007372;28;20058;-73
2022/05/18 00:12:33;;;;;;;9.70;2.92;;;15.40;91.70;;;;;;5004040;28;20029;-73
2022/05/18 00:14:59;;;;;;;9.70;2.88;;;15.40;92.00;;;;;;5015481;28;20022;-73
2022/05/18 00:17:24;;;;;;;8.18;2.65;;;15.30;91.70;;;;;;5007726;28;20598;-72
2022/05/18 00:19:50;;;;;;;9.80;2.58;;;15.30;91.60;;;;;;5007951;28;20153;-71
2022/05/18 00:22:15;;;;;;;6.22;2.05;;;15.20;91.50;;;;;;5009536;28;20113;-73
2022/05/18 00:24:41;;;;;;;7.50;2.28;;;15.20;91.30;;;;;;5000507;28;20460;-73
2022/05/18 00:27:07;;;;;;;9.65;1.92;;;15.20;91.10;;;;;;4994669;28;20077;-74
2022/05/18 00:29:33;;;;;;;5.68;2.05;;;15.10;90.70;;;;;;5012013;28;20452;-76
2022/05/18 00:32:00;;;;;;;8.25;2.00;;;15.10;90.70;;;;;;5022241;28;20048;-72
2022/05/18 00:34:26;;;;;;;7.10;2.00;;;15.10;90.60;;;;;;5022219;28;20460;-73
2022/05/18 00:36:51;;;;;;;6.47;1.98;;;15.10;90.50;;;;;;5011481;28;20064;-73
2022/05/18 00:39:17;;;;;;;9.15;2.15;;;15.00;90.80;;;;;;5011379;28;20030;-73
2022/05/18 00:41:43;;;;;;;5.90;1.92;;;15.00;90.80;;;;;;5001720;28;20026;-73
2022/05/18 00:44:08;;;;;;;4.90;1.50;;;14.90;90.40;;;;;;5041348;28;20049;-76
2022/05/18 00:46:34;;;;;;;4.80;1.40;;;14.90;90.00;;;;;;5011318;28;20026;-73
2022/05/18 00:49:03;;;;;;;4.88;1.55;;;14.90;89.90;;;;;;5011182;28;20041;-73
2022/05/18 00:51:38;;;;;;;4.17;1.20;;;14.90;90.00;;;;;;5011114;28;20064;-73
2022/05/18 00:54:30;;;;;;;4.13;1.20;;;14.90;88.60;;;;;;5011032;28;20749;-73
2022/05/18 00:57:02;;;;;;;4.28;1.30;;;14.80;88.10;;;;;;5010882;28;20507;-72
2022/05/18 00:59:33;;;;;;;5.53;1.15;;;14.80;88.20;;;;;;5008988;28;20042;-72
2022/05/18 01:02:01;;;;;;;6.38;1.25;;;14.70;89.00;;;;;;5006763;28;20026;-72
2022/05/18 01:04:27;;;;;;;5.35;1.38;;;14.70;88.10;;;;;;5038732;28;20025;-72
2022/05/18 01:07:05;;;;;;;3.20;1.10;;;14.70;87.90;;;;;;5006661;28;20033;-71
2022/05/18 01:09:37;;;;;;;4.30;1.35;;;14.60;88.10;;;;;;5003448;28;20468;-76
2022/05/18 01:12:05;;;;;;;6.05;1.27;;;14.60;88.40;;;;;;5008868;28;20113;-74
2022/05/18 01:15:00;;;;;;;2.97;0.95;;;14.50;88.20;;;;;;4999977;28;20046;-73
2022/05/18 01:17:33;;;;;;;4.38;1.40;;;14.50;88.30;;;;;;5002994;28;20524;-73
2022/05/18 01:20:03;;;;;;;2.75;1.10;;;14.40;88.50;;;;;;5002320;28;20437;-72
2022/05/18 01:23:03;;;;;;;3.40;1.10;;;14.40;88.20;;;;;;5039473;28;20022;-73
2022/05/18 01:25:39;;;;;;;3.20;1.10;;;14.30;87.80;;;;;;5005387;28;20262;-72
2022/05/18 01:28:06;;;;;;;9.60;1.55;;;14.30;87.60;;;;;;5023326;28;20049;-73
2022/05/18 01:30:33;;;;;;;3.28;1.05;;;14.30;87.20;;;;;;5008521;28;20054;-73
2022/05/18 01:33:03;;;;;;;4.72;1.00;;;14.30;87.40;;;;;;5006428;28;20125;-75
2022/05/18 01:35:30;;;;;;;;;;;14.20;87.10;;;;;;5003568;28;20025;-72
2022/05/18 01:37:59;;;;;;;4.22;1.10;;;14.20;87.80;;;;;;5004786;28;19917;-73
2022/05/18 01:40:58;;;;;;;3.88;1.10;;;14.20;87.00;;;;;;5035581;28;20030;-72
2022/05/18 01:43:33;;;;;;;5.23;1.00;;;14.20;87.00;;;;;;5006525;28;20057;-72
2022/05/18 01:46:01;;;;;;;2.67;0.80;;;14.10;87.20;;;;;;5006486;28;20315;-71
2022/05/18 01:48:31;;;;;;;3.80;0.80;;;14.10;87.00;;;;;;5006619;28;20032;-73
2022/05/18 01:51:02;;;;;;;4.20;1.20;;;14.00;86.90;;;;;;5003905;28;20034;-74
2022/05/18 01:53:29;;;;;;;2.78;0.80;;;14.00;87.10;;;;;;5006347;28;20108;-74
2022/05/18 01:55:55;;;;;;;3.10;0.88;;;14.00;87.10;;;;;;5005254;28;20362;-73
2022/05/18 01:58:21;;;;;;;3.67;1.00;;;14.10;87.50;;;;;;5007108;28;20098;-73
2022/05/18 02:00:47;;;;;;;3.58;1.25;;;14.10;87.30;;;;;;5003981;28;20482;-71
2022/05/18 02:03:14;;;;;;;4.80;0.98;;;14.10;87.60;;;;;;5005069;28;20059;-73
2022/05/18 02:05:41;;;;;;;4.05;1.02;;;14.10;87.50;;;;;;5006897;28;20481;-71
2022/05/18 02:11:19;;;;;;;5.00;1.30;;;14.00;87.80;;;;;;4993619;28;20030;-73
2022/05/18 02:13:46;;;;;;;3.78;0.95;;;13.90;88.00;;;;;;5004878;28;20609;-71
2022/05/18 02:16:12;;;;;;;2.92;1.10;;;13.90;88.00;;;;;;5001762;28;20360;-71
2022/05/18 02:18:38;;;;;;;3.70;1.08;;;13.80;88.30;;;;;;5007495;28;20029;-71
2022/05/18 02:21:08;;;;;;;6.50;0.95;;;13.80;88.60;;;;;;5004877;28;20034;-71
2022/05/18 02:23:34;;;;;;;3.58;1.10;;;13.70;89.00;;;;;;5007333;28;20026;-70
2022/05/18 02:26:12;;;;;;;6.20;0.95;;;13.70;88.90;;;;;;5016661;28;20049;-71
2022/05/18 02:28:38;;;;;;;4.65;1.17;;;13.70;89.20;;;;;;5013394;28;20093;-71
2022/05/18 02:31:04;;;;;;;3.35;0.80;;;13.60;89.20;;;;;;4999889;28;20038;-72
2022/05/18 02:33:30;;;;;;;3.38;1.00;;;13.60;89.50;;;;;;5038542;28;20041;-73
2022/05/18 02:35:55;;;;;;;5.05;1.10;;;13.60;89.60;;;;;;5005420;28;20434;-71
2022/05/18 02:38:21;;;;;;;4.65;1.20;;;13.60;90.00;;;;;;5003513;28;20476;-72
2022/05/18 02:40:47;;;;;;;4.32;1.00;;;13.60;90.10;;;;;;5004338;28;20034;-71
2022/05/18 02:43:13;;;;;;;4.80;1.10;;;13.50;90.10;;;;;;5001304;28;20529;-72
2022/05/18 02:45:38;;;;;;;4.45;1.33;;;13.40;90.00;;;;;;5000513;28;20026;-72
2022/05/18 02:48:05;;;;;;;5.03;1.30;;;13.20;90.10;;;;;;5004265;28;20384;-72
2022/05/18 02:50:32;;;;;;;6.70;1.50;;;13.20;90.40;;;;;;4995579;28;20109;-72
2022/05/18 02:52:58;;;;;;;3.17;1.17;;;13.00;90.40;;;;;;5005527;28;20042;-72
2022/05/18 02:58:09;;;;;;;4.22;1.20;;;12.70;91.00;;;;;;5006603;28;20372;-72
2022/05/18 03:00:35;;;;;;;5.07;1.17;;;12.60;91.30;;;;;;5003161;28;20030;-72
2022/05/18 03:03:01;;;;;;;3.67;0.98;;;12.60;91.50;;;;;;5005911;28;20034;-72
2022/05/18 03:05:27;;;;;;;4.45;1.20;;;12.50;91.70;;;;;;5005513;28;20037;-72
2022/05/18 03:07:53;;;;;;;5.45;1.23;;;12.50;91.90;;;;;;5005721;28;20566;-71
2022/05/18 03:10:19;;;;;;;4.05;1.13;;;12.30;91.80;;;;;;5002991;28;20075;-71
2022/05/18 03:12:45;;;;;;;4.05;1.40;;;12.10;92.00;;;;;;5006775;28;20033;-74
2022/05/18 03:15:12;;;;;;;5.30;1.33;;;12.00;92.40;;;;;;5039267;28;20040;-74
2022/05/18 03:17:39;;;;;;;5.80;1.52;;;12.00;92.70;;;;;;5002898;28;20369;-74
2022/05/18 03:20:06;;;;;;;5.68;1.35;;;12.10;92.80;;;;;;5006365;28;20040;-74
2022/05/18 03:25:16;;;;;;;6.13;1.50;;;12.10;92.40;;;;;;5006428;28;20478;-75
2022/05/18 03:27:45;;;;;;;4.57;1.38;;;12.10;92.50;;;;;;5003928;28;20038;-75
2022/05/18 03:30:13;;;;;;;3.43;1.10;;;12.10;92.30;;;;;;5004815;28;20490;-75
2022/05/18 03:32:39;;;;;;;4.60;1.33;;;11.90;92.20;;;;;;5022280;28;20466;-73
2022/05/18 03:35:06;;;;;;;4.15;1.45;;;11.90;92.40;;;;;;5002078;28;20117;-75
2022/05/18 03:37:32;;;;;;;5.07;1.30;;;11.90;92.50;;;;;;5036065;28;20030;-73
2022/05/18 03:39:58;;;;;;;3.40;1.30;;;11.80;92.60;;;;;;5007041;28;20037;-73
2022/05/18 03:42:23;;;;;;;5.15;1.50;;;11.80;92.40;;;;;;5005666;28;20034;-74
2022/05/18 03:44:49;;;;;;;4.97;1.30;;;11.70;92.30;;;;;;4995587;28;20492;-73
2022/05/18 03:47:15;;;;;;;4.60;1.60;;;11.60;92.60;;;;;;5006307;28;20018;-73
2022/05/18 03:49:41;;;;;;;8.50;1.83;;;11.50;93.00;;;;;;5000122;28;20096;-74
2022/05/18 03:52:06;;;;;;;5.53;1.60;;;11.50;93.10;;;;;;5004305;28;20025;-72
2022/05/18 03:54:33;;;;;;;6.95;1.63;;;11.40;93.10;;;;;;5000201;28;20523;-74
2022/05/18 03:56:59;;;;;;;4.28;1.30;;;11.30;93.20;;;;;;5036084;28;20030;-73
2022/05/18 03:59:26;;;;;;;7.00;1.52;;;11.30;93.00;;;;;;5009660;28;20022;-73
2022/05/18 04:01:52;;;;;;;4.50;1.20;;;11.10;93.40;;;;;;5007191;28;20026;-73
2022/05/18 04:04:17;;;;;;;5.53;1.92;;;11.10;93.60;;;;;;5005059;28;20034;-72
2022/05/18 04:06:43;;;;;;;6.13;1.98;;;11.10;94.00;;;;;;5007622;28;20534;-73
2022/05/18 04:09:09;;;;;;;5.97;2.10;;;11.20;94.00;;;;;;5035550;28;20041;-73
2022/05/18 04:11:35;;;;;;;7.05;1.85;;;11.20;93.70;;;;;;5010040;28;20602;-73
2022/05/18 04:14:00;;;;;;;5.97;1.88;;;11.10;93.70;;;;;;5006147;28;20030;-74
2022/05/18 04:16:26;;;;;;;6.78;2.42;;;11.00;93.90;;;;;;5010867;28;20633;-72
2022/05/18 04:18:52;;;;;;;8.18;2.38;;;11.00;93.90;;;;;;5008248;28;20109;-72
2022/05/18 04:21:18;;;;;;;8.57;2.58;;;11.00;94.10;;;;;;5006967;28;20084;-72
2022/05/18 04:23:43;;;;;;;8.48;3.10;;;11.10;94.30;;;;;;5001570;28;20034;-72
2022/05/18 04:26:09;;;;;;;6.20;2.72;;;11.10;94.30;;;;;;5005390;28;20368;-73
2022/05/18 04:28:35;;;;;;;10.45;2.90;;;11.10;94.30;;;;;;5003864;28;20064;-73
2022/05/18 04:31:01;;;;;;;14.35;4.30;;;11.20;94.40;;;;;;5010036;28;20137;-73
2022/05/18 04:33:27;;;;;;;10.68;3.50;;;11.20;94.30;;;;;;5008489;28;20468;-74
2022/05/18 04:35:53;;;;;;;8.90;3.38;;;11.20;94.40;;;;;;5006511;28;20088;-73
2022/05/18 04:38:20;;;;;;;8.60;3.42;;;11.20;94.40;;;;;;5006216;28;20034;-72
2022/05/18 04:40:47;;;;;;;10.20;4.20;;;11.30;94.50;;;;;;5006501;28;20041;-72
2022/05/18 04:43:13;;;;;;;11.10;4.43;;;11.30;94.60;;;;;;5032003;28;20038;-72
2022/05/18 04:45:44;;;;;;;14.35;5.25;;;11.40;94.60;;;;;;5009664;28;20117;-72
2022/05/18 04:48:13;;;;;;;12.85;5.95;;;11.50;95.20;;;;;;5006439;28;20058;-72
2022/05/18 04:50:39;;;;;;;12.70;5.35;;;11.70;95.20;;;;;;5006905;28;20033;-73
2022/05/18 04:53:05;;;;;;;13.60;5.72;;;11.80;94.90;;;;;;5007639;28;20033;-72
2022/05/18 04:55:31;;;;;;;12.98;5.68;;;11.90;94.60;;;;;;5029729;28;20035;-72
2022/05/18 04:58:01;;;;;;;12.13;6.43;;;12.00;94.30;;;;;;5008670;28;20045;-73
2022/05/18 05:00:27;;;;;;;11.90;7.13;;;12.10;94.20;;;;;;5006904;28;20030;-72
2022/05/18 05:02:56;;;;;;;14.60;7.53;;;12.20;94.00;;;;;;5008777;28;20056;-71
2022/05/18 05:05:22;;;;;;;13.30;7.93;;;12.20;93.80;;;;;;5035026;28;20116;-72
2022/05/18 05:07:48;;;;;;;11.25;7.47;;;12.30;93.70;;;;;;5001510;28;20033;-73
2022/05/18 05:10:14;;;;;;;14.85;8.77;;;12.30;93.80;;;;;;5009907;28;20440;-72
2022/05/18 05:12:39;;;;;;;15.57;8.63;;;12.40;93.60;;;;;;5002695;28;20027;-72
2022/05/18 05:15:07;;;;;;;14.65;8.93;;;12.40;93.60;;;;;;5003512;28;20263;-72
2022/05/18 05:17:33;;;;;;;17.08;8.77;;;12.40;93.60;;;;;;5009432;28;20374;-72
2022/05/18 05:19:59;;;;;;;12.70;5.57;;;12.40;93.40;;;;;;5009863;28;20041;-72
2022/05/18 05:22:26;;;;;;;13.43;6.32;;;12.40;92.70;;;;;;5008630;28;20030;-73
2022/05/18 05:24:51;;;;;;;10.40;5.88;;;12.30;92.50;;;;;;5010232;28;20602;-72
2022/05/18 05:27:17;;;;;;;10.85;6.32;;;12.10;92.80;;;;;;5009109;28;20042;-72
2022/05/18 05:29:43;;;;;;;14.45;7.78;;;12.10;93.30;;;;;;5002507;28;20030;-72
2022/05/18 05:32:09;;;;;;;11.63;7.40;;;12.20;93.70;;;;;;5010146;28;20267;-73
2022/05/18 05:34:35;;;;;;;13.25;7.40;;;12.30;93.70;;;;;;5039819;28;20041;-73
2022/05/18 05:37:01;;;;;;;11.30;6.07;;;12.40;93.80;;;;;;5006850;28;20056;-73
2022/05/18 05:39:26;;;;;;;14.98;6.63;;;12.50;93.60;;;;;;4995337;28;20101;-73
2022/05/18 05:41:52;;;;;;;12.77;6.63;;;12.70;93.40;;;;;;5007787;28;20038;-73
2022/05/18 05:44:18;;;;;;;14.15;6.80;;;12.80;93.30;;;;;;5001289;28;20465;-72
2022/05/18 05:46:45;;;;;;;15.23;7.00;;;12.90;93.30;;;;;;4991118;28;20030;-73
2022/05/18 05:49:11;;;;;;;17.55;7.70;;;12.90;93.00;;;;;;4996185;28;20041;-73
2022/05/18 05:51:37;;;;;;;11.73;6.68;;;13.00;92.90;;;;;;5009668;28;20060;-72
2022/05/18 05:54:03;;;;;;;12.18;6.40;;;13.00;92.80;;;;;;5009973;28;20180;-73
2022/05/18 05:56:29;;;;;;;10.23;5.38;;;13.20;92.70;;;;;;5008147;28;20033;-73
2022/05/18 05:58:55;;;;;;;10.82;5.53;;;13.20;92.50;;;;;;5006837;28;20037;-73
2022/05/18 06:01:21;;;;;;;18.05;6.13;;;13.30;92.40;;;;;;5008939;28;20025;-71
2022/05/18 06:03:48;;;;;;;10.82;5.43;;;13.40;92.40;;;;;;5008575;28;20484;-73
2022/05/18 06:06:13;;;;;;;13.20;4.55;;;13.40;92.10;;;;;;4999921;28;20471;-72
2022/05/18 06:08:40;;;;;;;13.15;5.40;;;13.50;91.90;;;;;;5003745;28;20037;-72
2022/05/18 06:11:08;;;;;;;9.45;4.43;;;13.50;92.00;;;;;;4999784;28;20034;-72
2022/05/18 06:13:34;;;;;;;10.23;4.25;;;13.60;91.80;;;;;;5000486;28;20029;-73
2022/05/18 06:16:00;;;;;;;12.38;4.82;;;13.70;91.90;;;;;;4991232;28;20022;-72
2022/05/18 06:18:26;;;;;;;10.00;4.85;;;13.80;91.90;;;;;;5002064;28;20856;-72
2022/05/18 06:20:52;;;;;;;13.55;6.03;;;13.90;91.70;;;;;;4999860;28;20032;-74
2022/05/18 06:23:18;;;;;;;11.07;6.45;;;13.90;91.80;;;;;;4999392;28;20084;-74
2022/05/18 06:25:46;;;;;;;15.65;5.97;;;14.00;91.70;;;;;;5004511;28;20054;-74
2022/05/18 06:28:12;;;;;;;12.90;4.95;;;14.10;91.80;;;;;;5037584;28;20080;-73
2022/05/18 06:30:38;;;;;;;12.00;4.15;;;14.20;91.60;;;;;;5020801;28;20040;-72
2022/05/18 06:33:04;;;;;;;8.73;3.72;;;14.20;90.70;;;;;;5000651;28;20034;-73
2022/05/18 06:35:30;;;;;;;13.77;4.65;;;14.30;90.40;;;;;;5034122;28;20037;-73
2022/05/18 06:37:57;;;;;;;9.98;3.67;;;14.30;90.20;;;;;;5009306;28;20061;-73
2022/05/18 06:41:21;;;;;;;11.80;4.68;;;14.40;90.20;;;;;;5006719;28;20129;-73
2022/05/18 06:43:09;;;;;;;11.40;4.68;;;14.40;90.40;;;;;;5001738;28;20562;-74
2022/05/18 06:45:34;;;;;;;10.25;3.97;;;14.50;90.50;;;;;;5010812;28;20124;-73
2022/05/18 06:48:00;;;;;;;14.07;5.00;;;14.60;90.30;;;;;;5002256;28;20067;-73
2022/05/18 06:50:26;;;;;;;12.45;4.63;;;14.80;89.60;;;;;;5022648;28;20702;-73
2022/05/18 06:52:52;;;;;;;9.15;4.00;;;14.80;89.00;;;;;;5003374;28;20416;-73
2022/05/18 06:55:18;;;;;;;10.82;3.90;;;15.00;89.00;;;;;;5009973;28;20647;-73
2022/05/18 06:57:43;;;;;;;11.18;3.67;;;15.10;88.10;;;;;;5011182;28;20419;-72
2022/05/18 07:00:10;;;;;;;10.38;3.67;;;15.30;87.90;;;;;;5006961;28;20060;-73
2022/05/18 07:02:35;;;;;;;11.75;3.55;;;15.60;85.60;;;;;;5011056;28;20026;-73
2022/05/18 07:05:01;;;;;;;7.82;2.70;;;16.00;84.50;;;;;;4998470;28;20040;-73
2022/05/18 07:07:27;;;;;;;10.75;3.75;;;16.10;81.10;;;;;;5010487;28;20041;-73
2022/05/18 07:09:52;;;;;;;10.85;3.65;;;15.90;83.80;;;;;;5022099;28;20033;-73
2022/05/18 07:12:18;;;;;;;14.60;4.22;;;15.80;85.80;;;;;;5014354;28;20102;-73
2022/05/18 07:14:44;;;;;;;10.07;2.88;;;15.80;85.30;;;;;;5001366;28;20030;-74
2022/05/18 07:17:09;;;;;;;12.27;3.80;;;15.80;85.10;;;;;;5003142;28;20767;-74
2022/05/18 07:19:35;;;;;;;10.30;3.10;;;15.80;86.30;;;;;;5003573;28;20524;-73
2022/05/18 07:22:01;;;;;;;10.63;3.30;;;15.90;84.90;;;;;;5001781;28;20037;-73
2022/05/18 07:24:27;;;;;;;10.63;3.67;;;15.90;85.00;;;;;;5001217;28;20433;-73
2022/05/18 07:26:53;;;;;;;10.77;3.72;;;15.90;83.80;;;;;;5000411;28;20070;-74
2022/05/18 07:29:18;;;;;;;9.43;3.50;;;15.90;85.30;;;;;;5008249;28;20100;-74
2022/05/18 07:34:28;;;;;;;9.52;3.85;;;15.70;85.10;;;;;;5007198;28;20522;-74
2022/05/18 07:36:54;;;;;;;12.80;3.50;;;15.80;85.30;;;;;;5012733;28;20029;-73
2022/05/18 07:39:20;;;;;;;9.18;3.10;;;15.80;86.10;;;;;;5010643;28;20109;-74
2022/05/18 07:41:46;;;;;;;11.98;3.40;;;16.00;85.60;;;;;;4998907;28;20052;-74
2022/05/18 07:44:12;;;;;;;11.70;3.40;;;16.20;84.20;;;;;;5010389;28;20034;-72
2022/05/18 07:46:38;;;;;;;9.85;2.75;;;16.20;84.10;;;;;;5011577;28;20095;-72
2022/05/18 07:49:05;;;;;;;8.88;2.85;;;16.30;83.30;;;;;;5013083;28;20475;-74
2022/05/18 07:51:31;;;;;;;8.57;2.80;;;16.40;82.30;;;;;;5012499;28;20053;-71
2022/05/18 07:53:56;;;;;;;8.32;2.58;;;16.30;83.70;;;;;;5041223;28;20088;-75
2022/05/18 07:56:22;;;;;;;11.68;2.63;;;16.50;83.40;;;;;;5011907;28;20029;-73
2022/05/18 07:58:48;;;;;;;10.75;2.80;;;16.70;83.10;;;;;;5011688;28;20026;-75
2022/05/18 08:01:14;;;;;;;8.50;2.90;;;16.80;82.80;;;;;;5011081;28;20603;-76
2022/05/18 08:03:39;;;;;;;8.25;2.50;;;16.90;81.10;;;;;;5001742;28;20044;-75
2022/05/18 08:06:05;;;;;;;10.38;1.90;;;17.00;80.80;;;;;;4992363;28;20425;-72
2022/05/18 08:08:30;;;;;;;8.95;2.53;;;17.00;77.80;;;;;;4992246;28;20026;-74
2022/05/18 08:16:26;;;;;;;8.27;2.88;;;17.10;78.60;;;;;;4993451;28;20431;-74
2022/05/18 08:18:52;;;;;;;11.32;2.70;;;17.20;81.20;;;;;;4999776;28;20031;-74
2022/05/18 08:21:18;;;;;;;9.15;2.20;;;17.20;78.00;;;;;;5007483;28;20030;-72
2022/05/18 08:23:44;;;;;;;10.48;2.70;;;17.10;77.10;;;;;;5011318;28;20034;-75
2022/05/18 08:26:10;;;;;;;9.38;2.20;;;17.00;79.00;;;;;;5006421;28;20453;-75
2022/05/18 08:28:37;;;;;;;7.03;2.17;;;16.90;80.00;;;;;;4990482;28;20031;-74
2022/05/18 08:31:03;;;;;;;8.50;2.13;;;17.00;78.90;;;;;;4998711;28;20045;-75
2022/05/18 08:33:31;;;;;;;10.00;2.55;;;17.10;79.40;;;;;;5011216;28;20030;-74
2022/05/18 08:36:02;;;;;;;9.95;2.38;;;17.20;76.50;;;;;;5011677;28;20083;-73
2022/05/18 08:38:28;;;;;;;8.02;2.42;;;17.20;78.00;;;;;;5010714;28;20075;-74
2022/05/18 08:40:58;;;;;;;9.80;2.83;;;17.20;76.90;;;;;;5001874;28;20639;-75
2022/05/18 08:43:33;;;;;;;7.65;2.45;;;17.20;78.20;;;;;;5009500;28;20037;-78
2022/05/18 08:46:16;;;;;;;12.48;2.92;;;17.10;77.50;;;;;;5008303;28;20042;-73
2022/05/18 08:49:10;;;;;;;9.05;2.72;;;17.00;80.10;;;;;;5039215;28;20052;-74
2022/05/18 08:52:12;;;;;;;9.15;2.42;;;16.90;79.30;;;;;;5006185;28;20032;-75
2022/05/18 08:54:44;;;;;;;8.98;2.05;;;17.00;78.90;;;;;;5001019;28;20074;-74
2022/05/18 08:57:34;;;;;;;8.07;2.53;;;17.10;79.80;;;;;;5003326;28;20037;-75
2022/05/18 09:00:06;;;;;;;;;;;17.30;78.60;;;;;;5012099;28;20099;-75
2022/05/18 09:02:34;;;;;;;8.75;2.45;;;17.50;79.10;;;;;;5010941;28;19909;-75
2022/05/18 09:05:07;;;;;;;12.10;3.15;;;17.70;78.60;;;;;;5010716;28;20443;-75
2022/05/18 09:07:43;;;;;;;8.57;2.22;;;18.00;78.80;;;;;;5010364;28;20030;-74
2022/05/18 09:10:27;;;;;;;9.38;2.42;;;18.10;75.80;;;;;;5007905;28;20029;-75
2022/05/18 09:12:52;;;;;;;8.57;2.25;;;18.30;74.10;;;;;;5010639;28;20029;-75
2022/05/18 09:15:25;;;;;;;7.80;2.17;;;18.20;76.00;;;;;;5009141;28;20037;-75
2022/05/18 09:18:14;;;;;;;8.25;2.15;;;18.30;75.20;;;;;;5010136;28;20058;-74
2022/05/18 09:20:57;;;;;;;9.82;2.00;;;18.50;74.10;;;;;;5025844;28;20594;-75
2022/05/18 09:23:31;;;;;;;8.77;2.03;;;18.60;73.90;;;;;;5024840;28;20076;-74
2022/05/18 09:26:20;;;;;;;8.18;2.30;;;18.60;71.80;;;;;;5026093;28;20400;-74
2022/05/18 09:28:57;;;;;;;9.18;2.20;;;18.40;72.60;;;;;;5022635;28;20029;-76
2022/05/18 09:31:55;;;;;;;9.43;1.83;;;18.50;74.50;;;;;;5027419;28;20033;-74
2022/05/18 09:34:45;;;;;;;8.05;1.88;;;18.50;70.80;;;;;;5007115;28;20037;-75
2022/05/18 09:37:10;;;;;;;7.97;2.10;;;18.50;72.10;;;;;;5027574;28;20121;-75
2022/05/18 09:39:43;;;;;;;8.70;2.00;;;18.60;71.80;;;;;;5026741;28;20129;-75
2022/05/18 09:42:14;;;;;;;8.07;1.92;;;18.80;70.30;;;;;;5025407;28;20116;-75
2022/05/18 09:44:58;;;;;;;9.13;1.70;;;18.90;71.60;;;;;;5022646;28;20054;-75
2022/05/18 09:47:26;;;;;;;8.32;2.40;;;19.10;71.10;;;;;;5025209;28;20057;-74
2022/05/18 09:49:55;;;;;;;10.30;1.98;;;19.20;70.20;;;;;;5007869;28;20037;-74
2022/05/18 09:52:26;;;;;;;8.13;1.92;;;19.20;71.00;;;;;;5023542;28;20033;-74
2022/05/18 09:54:55;;;;;;;7.63;2.20;;;19.30;70.80;;;;;;5007759;28;20064;-75
2022/05/18 09:57:45;;;;;;;7.50;1.90;;;19.50;71.70;;;;;;5020498;28;20034;-74
2022/05/18 10:00:23;;;;;;;8.32;1.52;;;19.70;70.20;;;;;;5042536;28;20430;-75
2022/05/18 10:08:30;;;;;;;7.72;2.15;;;19.90;67.90;;;;;;4990192;28;20667;-75
2022/05/18 10:11:12;;;;;;;6.97;2.05;;;20.00;67.90;;;;;;4994520;28;20028;-74
2022/05/18 10:13:43;;;;;;;8.30;1.60;;;20.00;67.10;;;;;;5006767;28;20048;-75
2022/05/18 10:16:16;;;;;;;6.15;1.50;;;20.10;66.90;;;;;;5006061;28;20064;-74
2022/05/18 10:18:51;;;;;;;8.85;1.80;;;20.20;66.10;;;;;;5003041;28;20089;-74
2022/05/18 10:21:16;;;;;;;8.30;2.00;;;20.20;65.00;;;;;;5027532;28;20125;-74
2022/05/18 10:23:51;;;;;;;8.30;1.60;;;20.30;64.70;;;;;;4990070;28;20113;-75
2022/05/18 10:26:34;;;;;;;8.73;1.92;;;20.30;65.10;;;;;;5039282;28;20165;-75
2022/05/18 10:29:22;;;;;;;6.80;1.35;;;20.50;63.80;;;;;;5006733;28;20768;-74
2022/05/18 10:32:18;;;;;;;6.68;1.40;;;20.30;62.00;;;;;;5009619;28;20037;-76
2022/05/18 10:34:47;;;;;;;6.63;2.08;;;20.40;63.00;;;;;;5022654;28;20033;-74
2022/05/18 10:37:33;;;;;;;5.68;1.15;;;20.50;65.60;;;;;;5007875;28;20033;-73
2022/05/18 10:40:05;;;;;;;8.10;1.30;;;20.60;62.10;;;;;;5007515;28;20076;-74
2022/05/18 10:42:39;;;;;;;9.45;1.70;;;20.80;61.20;;;;;;4991812;28;20019;-73
2022/05/18 10:45:27;;;;;;;7.60;1.70;;;21.00;61.10;;;;;;5002329;28;20045;-77
2022/05/18 10:48:29;;;;;;;7.85;1.63;;;21.10;62.40;;;;;;5005943;28;20040;-74
2022/05/18 10:51:03;;;;;;;8.55;1.60;;;21.20;59.70;;;;;;5012121;28;20389;-75
2022/05/18 10:53:33;;;;;;;7.10;1.60;;;21.20;57.80;;;;;;5006454;28;20045;-76
2022/05/18 10:56:14;;;;;;;9.57;2.08;;;21.20;58.50;;;;;;5003623;28;20026;-75
2022/05/18 10:58:47;;;;;;;7.50;1.52;;;21.30;58.70;;;;;;5006642;28;20038;-76
2022/05/18 11:01:22;;;;;;;7.68;1.90;;;21.40;59.70;;;;;;5005419;28;20034;-75
2022/05/18 11:04:14;;;;;;;6.47;1.60;;;21.60;59.30;;;;;;5003862;28;20065;-78
2022/05/18 11:06:41;;;;;;;7.05;1.50;;;21.70;58.80;;;;;;5006250;28;20030;-76
2022/05/18 11:09:17;;;;;;;8.82;1.80;;;21.70;55.50;;;;;;5020925;28;20026;-76
2022/05/18 11:12:10;;;;;;;7.38;1.63;;;21.50;55.50;;;;;;5018479;28;20026;-80
2022/05/18 11:14:41;;;;;;;6.05;1.50;;;21.60;57.00;;;;;;5006854;28;20044;-79
2022/05/18 11:17:30;;;;;;;6.00;1.40;;;21.60;59.90;;;;;;5006637;28;20109;-75
2022/05/18 11:19:56;;;;;;;6.38;1.42;;;21.90;56.50;;;;;;5031524;28;20612;-75
2022/05/18 11:22:32;;;;;;;5.97;1.50;;;23.50;55.40;;;;;;5022663;28;20197;-75
2022/05/18 11:25:04;;;;;;;5.95;1.20;;;24.20;49.10;;;;;;5016180;28;20377;-74
2022/05/18 11:27:46;;;;;;;7.43;1.40;;;25.40;49.10;;;;;;5005661;28;20057;-78
2022/05/18 11:30:18;;;;;;;8.25;1.23;;;26.50;47.40;;;;;;5005922;28;20022;-75
2022/05/18 11:33:14;;;;;;;5.72;1.00;;;28.20;43.90;;;;;;5003942;28;20069;-75
2022/05/18 11:36:09;;;;;;;7.65;1.38;;;26.80;42.10;;;;;;5007073;28;20034;-80
2022/05/18 11:39:12;;;;;;;7.68;1.40;;;25.00;46.10;;;;;;5024956;28;20049;-76
2022/05/18 11:41:49;;;;;;;9.65;2.03;;;24.20;49.00;;;;;;5025120;28;20037;-77
2022/05/18 11:44:40;;;;;;;7.50;1.60;;;23.20;50.70;;;;;;5025217;28;20060;-76
2022/05/18 11:47:30;;;;;;;7.57;1.63;;;22.90;51.20;;;;;;5025298;28;20116;-75
2022/05/18 11:50:04;;;;;;;;;;;22.50;53.50;;;;;;5024489;28;20727;-76
2022/05/18 11:53:34;;;;;;;9.30;1.77;;;22.20;54.50;;;;;;5024292;28;19928;-75
2022/05/18 11:56:19;;;;;;;9.65;2.05;;;21.90;57.00;;;;;;4966250;28;20529;-76
2022/05/18 11:59:12;;;;;;;6.13;1.42;;;21.80;54.50;;;;;;4966164;28;20118;-77
2022/05/18 12:02:14;;;;;;;6.97;2.00;;;21.80;56.90;;;;;;4965333;28;20046;-76
2022/05/18 12:05:01;;;;;;;7.03;1.52;;;21.70;55.60;;;;;;4964051;28;20469;-78
2022/05/18 12:08:10;;;;;;;7.97;1.40;;;21.70;56.40;;;;;;4947805;28;20039;-76
2022/05/18 12:10:50;;;;;;;7.17;1.43;;;21.50;54.20;;;;;;4965954;28;20039;-76
2022/05/18 12:13:31;;;;;;;7.30;1.20;;;21.60;54.40;;;;;;4946922;28;20452;-75
2022/05/18 12:16:08;;;;;;;7.80;1.33;;;21.40;53.00;;;;;;4957503;28;20400;-78
2022/05/18 12:18:38;;;;;;;6.03;1.20;;;21.50;55.00;;;;;;4964019;28;20027;-76
2022/05/18 12:21:41;;;;;;;6.85;1.20;;;21.40;52.90;;;;;;4968638;28;20134;-76
2022/05/18 12:24:09;;;;;;;7.57;1.25;;;21.40;55.80;;;;;;4985952;28;20039;-76
2022/05/18 12:26:40;;;;;;;7.05;1.10;;;21.60;52.60;;;;;;5015894;28;20591;-76
2022/05/18 12:29:08;;;;;;;5.95;1.17;;;21.60;51.90;;;;;;5041317;28;20141;-78
2022/05/18 12:31:35;;;;;;;6.35;1.25;;;21.40;51.80;;;;;;5003936;28;20026;-73
2022/05/18 12:34:19;;;;;;;6.75;1.20;;;21.40;51.70;;;;;;5041938;28;20036;-74
2022/05/18 12:36:57;;;;;;;6.28;1.00;;;21.50;51.70;;;;;;5005792;28;20436;-75
2022/05/18 12:39:23;;;;;;;7.18;1.33;;;21.70;45.80;;;;;;5012054;28;20034;-73
2022/05/18 12:41:56;;;;;;;4.07;1.00;;;21.70;46.70;;;;;;5043189;28;20602;-75
2022/05/18 12:44:23;;;;;;;6.78;1.20;;;21.60;48.00;;;;;;5011417;28;20033;-77
2022/05/18 12:46:55;;;;;;;4.30;1.05;;;21.50;47.60;;;;;;5009707;28;20062;-76
2022/05/18 12:49:42;;;;;;;6.65;1.77;;;21.50;45.80;;;;;;5006811;28;20045;-79
2022/05/18 12:52:29;;;;;;;5.25;1.17;;;21.60;49.40;;;;;;4991289;28;20494;-77
2022/05/18 12:54:55;;;;;;;5.47;0.93;;;21.90;48.60;;;;;;5020231;28;20030;-77
2022/05/18 12:57:43;;;;;;;6.15;0.93;;;22.00;44.00;;;;;;5026641;28;20025;-74
2022/05/18 13:00:24;;;;;;;5.53;1.10;;;22.10;44.10;;;;;;5011072;28;20072;-77
2022/05/18 13:03:15;;;;;;;4.82;1.00;;;22.20;43.60;;;;;;5009440;28;20033;-73
2022/05/18 13:05:46;;;;;;;5.60;1.35;;;22.10;44.30;;;;;;5005061;28;20076;-75
2022/05/18 13:08:37;;;;;;;5.13;1.10;;;21.80;45.50;;;;;;5009153;28;20022;-79
2022/05/18 13:11:14;;;;;;;4.78;1.10;;;21.90;44.40;;;;;;5005776;28;20470;-82
2022/05/18 13:13:58;;;;;;;4.28;0.98;;;21.80;41.80;;;;;;5018106;28;20030;-76
2022/05/18 13:16:39;;;;;;;6.43;1.20;;;21.70;41.20;;;;;;4998711;28;20509;-80
2022/05/18 13:19:13;;;;;;;4.38;1.13;;;21.70;44.30;;;;;;5024337;28;20112;-76
2022/05/18 13:21:51;;;;;;;4.95;1.00;;;21.60;43.20;;;;;;5028372;28;20037;-84
2022/05/18 13:24:25;;;;;;;4.88;0.90;;;21.50;43.60;;;;;;5029057;28;20128;-78
2022/05/18 13:26:51;;;;;;;4.75;0.88;;;21.30;44.20;;;;;;5030225;28;20058;-82
2022/05/18 13:29:27;;;;;;;5.20;1.20;;;21.20;45.50;;;;;;5028322;28;20033;-78